This is the latest recevied weather packets stored in our database for station/object KI7JYE. If no packets are shown the sender has not sent any weather packets the latest 10 day(s).
| Time | Temp. | Humidity | Pressure | Rain* | Wind** | Luminosity | Snow |
|---|---|---|---|---|---|---|---|
| 1777825549 | 22.78° C | 59% | 1010.3 hPa | 0 mm | - | 539 W/m² | - |
| 1777824338 | 20.56° C | 68% | 1010.4 hPa | 0 mm | - | 411 W/m² | - |
| 1777823730 | 19.44° C | 73% | 1010.4 hPa | 0 mm | - | 367 W/m² | - |
| 1777823427 | 18.89° C | 74% | 1010.5 hPa | 0 mm | - | 343 W/m² | - |
| 1777821612 | 15.56° C | 84% | 1010.5 hPa | 0 mm | - | 252 W/m² | - |
| 1777819189 | 13.33° C | 92% | 1010.5 hPa | 0 mm | - | 76 W/m² | - |
| 1777817975 | 12.78° C | 96% | 1010.5 hPa | 0 mm | - | 55 W/m² | - |
| 1777817673 | 12.22° C | 98% | 1010.6 hPa | 0 mm | - | 49 W/m² | - |
| 1777811918 | 10.56° C | 99% | 1010.3 hPa | 0 mm | - | 0 W/m² | - |
| 1777811617 | 10.56° C | 99% | 1010.1 hPa | 0 mm | - | 0 W/m² | - |
| 1777810403 | 10.56° C | 99% | 1010.2 hPa | 0 mm | - | 0 W/m² | - |
| 1777809796 | 11.11° C | 99% | 1010.5 hPa | 0 mm | - | 0 W/m² | - |
| 1777808889 | 11.11° C | 99% | 1010.4 hPa | 0 mm | - | 0 W/m² | - |
| 1777807678 | 10.56° C | 99% | 1009.9 hPa | 0 mm | - | 0 W/m² | - |
| 1777807071 | 10.56° C | 98% | 1010.1 hPa | 0 mm | - | 0 W/m² | - |
| 1777804648 | 10.56° C | 98% | 1010.3 hPa | 0 mm | - | 0 W/m² | - |
| 1777804346 | 10.56° C | 98% | 1010.5 hPa | 0 mm | - | 0 W/m² | - |
| 1777804042 | 11.11° C | 98% | 1010.5 hPa | 0 mm | - | 0 W/m² | - |
| 1777803739 | 11.11° C | 98% | 1010.4 hPa | 0 mm | - | 0 W/m² | - |
| 1777803132 | 11.11° C | 98% | 1010.6 hPa | 0 mm | - | 0 W/m² | - |
| 1777802829 | 11.11° C | 98% | 1010.5 hPa | 0 mm | - | 0 W/m² | - |
| 1777802527 | 11.11° C | 97% | 1010.7 hPa | 0 mm | - | 0 W/m² | - |
| 1777802224 | 11.11° C | 97% | 1010.5 hPa | 0 mm | - | 0 W/m² | - |
| 1777801620 | 11.11° C | 97% | 1010.7 hPa | 0 mm | - | 0 W/m² | - |
| 1777801317 | 11.11° C | 97% | 1010.5 hPa | 0 mm | - | 0 W/m² | - |
* Rain latest hour (hover to see other rain measurements)
** Current wind speed in m/s (hover to see current wind gust speed)